createdAt,value
2023-03-29T00:00:21.175Z,92297.41
2023-03-29T00:02:55.772Z,92324.69
2023-03-29T00:05:28.316Z,92310.19
2023-03-29T00:08:03.358Z,92303.78
2023-03-29T00:10:36.335Z,92310.09
2023-03-29T00:13:08.704Z,92310.19
2023-03-29T00:15:41.789Z,92310.44
2023-03-29T00:18:14.767Z,92300.50
2023-03-29T00:20:54.169Z,92307.25
2023-03-29T00:23:26.850Z,92306.78
2023-03-29T00:25:59.261Z,92306.22
2023-03-29T00:28:31.632Z,92315.34
2023-03-29T00:31:06.318Z,92309.19
2023-03-29T00:33:40.661Z,92300.69
2023-03-29T00:36:15.414Z,92311.41
2023-03-29T00:38:47.972Z,92308.88
2023-03-29T00:41:20.955Z,92307.53
2023-03-29T00:43:56.264Z,92317.59
2023-03-29T00:46:30.417Z,92312.16
2023-03-29T00:49:08.875Z,92317.47
2023-03-29T00:51:42.579Z,92317.47
2023-03-29T00:54:18.904Z,92309.72
2023-03-29T00:56:51.773Z,92310.50
2023-03-29T00:59:28.180Z,92322.97
2023-03-29T01:02:02.883Z,92324.56
2023-03-29T01:04:40.985Z,92328.78
2023-03-29T01:07:20.519Z,92326.50
2023-03-29T01:09:55.495Z,92344.00
2023-03-29T01:12:32.082Z,92347.31
2023-03-29T01:15:09.620Z,92338.38
2023-03-29T01:17:46.564Z,92336.22
2023-03-29T01:20:26.816Z,92333.41
2023-03-29T01:23:13.346Z,92331.63
2023-03-29T01:26:01.062Z,92346.56
2023-03-29T01:28:38.757Z,92344.00
2023-03-29T01:31:16.498Z,92326.66
2023-03-29T01:33:51.756Z,92331.84
2023-03-29T01:36:29.126Z,92331.16
2023-03-29T01:39:06.512Z,92327.25
2023-03-29T01:41:46.612Z,92310.16
2023-03-29T01:44:27.228Z,92328.91
2023-03-29T01:47:07.293Z,92308.03
2023-03-29T01:49:44.661Z,92321.25
2023-03-29T01:52:22.822Z,92317.53
2023-03-29T01:55:02.722Z,92321.75
2023-03-29T01:57:36.912Z,92324.47
2023-03-29T02:00:15.259Z,92326.88
2023-03-29T02:02:49.949Z,92325.88
2023-03-29T02:05:25.855Z,92326.88
2023-03-29T02:08:00.270Z,92325.06
2023-03-29T02:10:34.876Z,92318.88
2023-03-29T02:13:08.654Z,92326.13
2023-03-29T02:15:44.089Z,92327.50
2023-03-29T02:18:18.008Z,92323.00
2023-03-29T02:20:51.976Z,92332.28
2023-03-29T02:23:33.350Z,92336.34
2023-03-29T02:26:06.371Z,92334.16
2023-03-29T02:28:38.663Z,92346.28
2023-03-29T02:31:16.595Z,92325.41
2023-03-29T02:33:54.169Z,92340.50
2023-03-29T02:36:31.737Z,92342.06
2023-03-29T02:39:05.656Z,92349.13
2023-03-29T02:41:39.993Z,92365.25
2023-03-29T02:44:17.898Z,92353.81
2023-03-29T02:46:55.920Z,92360.53
2023-03-29T02:49:28.744Z,92368.03
2023-03-29T02:52:08.908Z,92361.00
2023-03-29T02:54:44.600Z,92377.63
2023-03-29T02:57:17.431Z,92383.00
2023-03-29T02:59:49.744Z,92393.22
2023-03-29T03:02:25.031Z,92372.59
2023-03-29T03:04:59.362Z,92385.56
2023-03-29T03:07:33.063Z,92389.09
2023-03-29T03:10:07.077Z,92400.41
2023-03-29T03:12:42.282Z,92404.38
2023-03-29T03:15:14.673Z,92400.75
2023-03-29T03:17:48.536Z,92412.59
2023-03-29T03:20:21.607Z,92410.34
2023-03-29T03:22:53.908Z,92423.75
2023-03-29T03:25:28.048Z,92411.16
2023-03-29T03:28:00.935Z,92411.31
2023-03-29T03:30:33.947Z,92412.53
2023-03-29T03:33:36.466Z,92426.28
2023-03-29T03:36:40.080Z,92421.91
2023-03-29T03:39:12.805Z,92431.59
2023-03-29T03:41:45.329Z,92432.59
2023-03-29T03:44:17.826Z,92427.28
2023-03-29T03:46:52.852Z,92443.16
2023-03-29T03:49:26.046Z,92440.09
2023-03-29T03:51:58.507Z,92425.72
2023-03-29T03:54:31.390Z,92435.53
2023-03-29T03:57:24.121Z,92435.88
2023-03-29T03:59:57.037Z,92431.38
2023-03-29T04:02:45.894Z,92437.31
2023-03-29T04:05:19.486Z,92427.41
2023-03-29T04:07:51.965Z,92426.66
2023-03-29T04:10:34.436Z,92420.94
2023-03-29T04:13:27.335Z,92414.81
2023-03-29T04:16:28.946Z,92443.47
2023-03-29T04:19:06.741Z,92444.03
2023-03-29T04:21:40.091Z,92455.41
2023-03-29T04:24:12.977Z,92441.16
2023-03-29T04:26:48.265Z,92444.63
2023-03-29T04:29:26.812Z,92450.38
2023-03-29T04:32:09.110Z,92457.38
2023-03-29T04:34:50.015Z,92450.94
2023-03-29T04:37:23.045Z,92460.78
2023-03-29T04:39:59.675Z,92464.00
2023-03-29T04:42:34.578Z,92465.97
2023-03-29T04:45:08.021Z,92466.75
2023-03-29T04:48:00.173Z,92470.41
2023-03-29T04:50:32.873Z,92464.19
2023-03-29T04:53:06.723Z,92465.50
2023-03-29T04:55:39.277Z,92462.63
2023-03-29T04:58:14.262Z,92460.66
2023-03-29T05:00:47.755Z,92471.84
2023-03-29T05:03:30.207Z,92468.88
2023-03-29T05:06:11.448Z,92474.78
2023-03-29T05:08:45.402Z,92476.53
2023-03-29T05:11:27.076Z,92465.09
2023-03-29T05:14:02.514Z,92470.53
2023-03-29T05:16:37.856Z,92464.84
2023-03-29T05:19:12.360Z,92459.69
2023-03-29T05:21:50.300Z,92465.72
2023-03-29T05:24:27.045Z,92463.69
2023-03-29T05:27:04.550Z,92473.84
2023-03-29T05:29:39.692Z,92463.88
2023-03-29T05:32:27.417Z,92460.25
2023-03-29T05:34:59.958Z,92460.78
2023-03-29T05:37:33.674Z,92452.31
2023-03-29T05:40:09.517Z,92459.91
2023-03-29T05:42:58.867Z,92458.16
2023-03-29T05:45:33.162Z,92464.16
2023-03-29T05:48:06.181Z,92478.34
2023-03-29T05:50:39.334Z,92474.44
2023-03-29T05:53:12.298Z,92482.03
2023-03-29T05:55:45.952Z,92481.91
2023-03-29T05:58:20.836Z,92490.84
2023-03-29T06:00:54.931Z,92486.44
2023-03-29T06:03:55.490Z,92490.16
2023-03-29T06:06:32.124Z,92494.66
2023-03-29T06:09:05.416Z,92492.44
2023-03-29T06:11:46.934Z,92489.53
2023-03-29T06:14:28.939Z,92502.00
2023-03-29T06:17:12.878Z,92511.97
2023-03-29T06:19:45.580Z,92511.69
2023-03-29T06:22:18.065Z,92512.66
2023-03-29T06:24:51.532Z,92520.25
2023-03-29T06:27:35.758Z,92520.78
2023-03-29T06:30:09.027Z,92529.41
2023-03-29T06:32:42.941Z,92531.31
2023-03-29T06:35:37.276Z,92539.41
2023-03-29T06:38:14.690Z,92533.94
2023-03-29T06:41:10.764Z,92546.88
2023-03-29T06:44:04.960Z,92542.28
2023-03-29T06:46:41.724Z,92556.59
2023-03-29T06:49:14.661Z,92542.44
2023-03-29T06:51:54.273Z,92540.56
2023-03-29T06:54:26.829Z,92537.91
2023-03-29T06:57:07.164Z,92533.22
2023-03-29T06:59:40.550Z,92551.56
2023-03-29T07:02:18.978Z,92550.81
2023-03-29T07:05:12.962Z,92537.50
2023-03-29T07:07:54.463Z,92546.41
2023-03-29T07:10:48.265Z,92567.34
2023-03-29T07:13:51.444Z,92554.13
2023-03-29T07:16:26.517Z,92553.47
2023-03-29T07:19:04.204Z,92548.66
2023-03-29T07:21:55.430Z,92560.81
2023-03-29T07:24:36.770Z,92562.38
2023-03-29T07:27:09.161Z,92567.38
2023-03-29T07:29:41.619Z,92556.28
2023-03-29T07:32:15.034Z,92558.31
2023-03-29T07:34:48.494Z,92554.81
2023-03-29T07:37:39.670Z,92548.78
2023-03-29T07:40:17.003Z,92540.69
2023-03-29T07:43:10.384Z,92535.56
2023-03-29T07:45:43.983Z,92546.31
2023-03-29T07:48:18.908Z,92553.22
2023-03-29T07:50:56.055Z,92547.66
2023-03-29T07:53:34.209Z,92537.94
2023-03-29T07:56:09.756Z,92539.50
2023-03-29T07:58:53.261Z,92543.06
2023-03-29T08:01:25.843Z,92547.66
2023-03-29T08:04:16.217Z,92537.94
2023-03-29T08:07:08.172Z,92538.09
2023-03-29T08:09:59.995Z,92535.44
2023-03-29T08:12:47.111Z,92521.91
2023-03-29T08:15:19.649Z,92526.47
2023-03-29T08:17:52.457Z,92540.56
2023-03-29T08:20:25.777Z,92533.34
2023-03-29T08:23:01.417Z,92521.84
2023-03-29T08:25:56.797Z,92517.75
2023-03-29T08:28:29.188Z,92521.44
2023-03-29T08:31:02.232Z,92522.72
2023-03-29T08:33:34.942Z,92521.88
2023-03-29T08:36:34.452Z,92519.03
2023-03-29T08:39:14.482Z,92510.47
2023-03-29T08:42:03.436Z,92517.44
2023-03-29T08:44:48.509Z,92519.56
2023-03-29T08:47:32.189Z,92520.84
2023-03-29T08:50:06.885Z,92521.22
2023-03-29T08:52:52.252Z,92513.81
2023-03-29T08:55:52.792Z,92510.75
2023-03-29T08:58:49.622Z,92506.31
2023-03-29T09:01:24.070Z,92515.75
2023-03-29T09:04:06.329Z,92518.53
2023-03-29T09:06:58.817Z,92498.50
2023-03-29T09:09:38.973Z,92509.56
2023-03-29T09:12:30.104Z,92522.47
2023-03-29T09:15:10.840Z,92517.09
2023-03-29T09:17:58.503Z,92521.28
2023-03-29T09:20:40.803Z,92514.84
2023-03-29T09:23:30.606Z,92522.09
2023-03-29T09:26:30.778Z,92513.84
2023-03-29T09:29:33.746Z,92504.50
2023-03-29T09:32:17.288Z,92510.59
2023-03-29T09:35:01.006Z,92516.69
2023-03-29T09:37:38.224Z,92502.94
2023-03-29T09:40:13.464Z,92521.28
2023-03-29T09:43:00.268Z,92516.72
2023-03-29T09:45:35.000Z,92513.91
2023-03-29T09:48:12.765Z,92499.50
2023-03-29T09:50:50.601Z,92511.97
2023-03-29T09:53:24.406Z,92499.81
2023-03-29T09:56:07.760Z,92488.81
2023-03-29T09:59:01.450Z,92475.41
2023-03-29T10:01:37.001Z,92466.59
2023-03-29T10:04:11.918Z,92472.91
2023-03-29T10:06:48.895Z,92476.00
2023-03-29T10:09:24.008Z,92469.53
2023-03-29T10:12:06.067Z,92477.03
2023-03-29T10:14:44.511Z,92473.16
2023-03-29T10:17:21.095Z,92466.66
2023-03-29T10:19:57.240Z,92467.69
2023-03-29T10:22:34.325Z,92474.44
2023-03-29T10:25:28.424Z,92474.72
2023-03-29T10:28:06.305Z,92480.94
2023-03-29T10:30:39.683Z,92486.84
2023-03-29T10:33:18.426Z,92489.59
2023-03-29T10:35:51.308Z,92476.00
2023-03-29T10:38:27.672Z,92457.84
2023-03-29T10:41:06.148Z,92448.75
2023-03-29T10:43:42.595Z,92466.41
2023-03-29T10:46:42.436Z,92464.53
2023-03-29T10:49:20.317Z,92462.72
2023-03-29T10:51:52.691Z,92442.06
2023-03-29T10:54:25.169Z,92466.69
2023-03-29T10:57:02.994Z,92464.84
2023-03-29T10:59:44.271Z,92456.75
2023-03-29T11:02:45.426Z,92460.03
2023-03-29T11:05:24.975Z,92457.84
2023-03-29T11:08:19.325Z,92453.47
2023-03-29T11:11:03.272Z,92429.09
2023-03-29T11:13:46.695Z,92450.06
2023-03-29T11:16:29.903Z,92442.50
2023-03-29T11:19:20.405Z,92441.97
2023-03-29T11:21:59.809Z,92443.19
2023-03-29T11:24:51.779Z,92460.06
2023-03-29T11:27:34.409Z,92452.94
2023-03-29T11:30:17.540Z,92435.16
2023-03-29T11:33:01.005Z,92441.88
2023-03-29T11:35:43.933Z,92453.91
2023-03-29T11:38:24.588Z,92455.56
2023-03-29T11:41:02.993Z,92456.50
2023-03-29T11:43:40.699Z,92450.44
2023-03-29T11:46:19.002Z,92452.22
2023-03-29T11:48:58.664Z,92449.19
2023-03-29T11:51:35.769Z,92452.13
2023-03-29T11:54:17.744Z,92457.31
2023-03-29T11:56:55.146Z,92443.91
2023-03-29T11:59:34.352Z,92434.38
2023-03-29T12:02:14.792Z,92444.09
2023-03-29T12:04:52.319Z,92455.66
2023-03-29T12:07:29.871Z,92453.84
2023-03-29T12:10:08.439Z,92462.44
2023-03-29T12:12:44.592Z,92418.19
2023-03-29T12:15:19.777Z,92435.41
2023-03-29T12:18:02.521Z,92449.81
2023-03-29T12:20:38.410Z,92444.94
2023-03-29T12:23:15.833Z,92436.06
2023-03-29T12:25:57.279Z,92433.88
2023-03-29T12:28:54.629Z,92441.28
2023-03-29T12:31:36.133Z,92456.59
2023-03-29T12:34:35.580Z,92423.53
2023-03-29T12:37:37.527Z,92437.63
2023-03-29T12:40:42.491Z,92432.44
2023-03-29T12:43:38.456Z,92426.66
2023-03-29T12:46:34.932Z,92423.34
2023-03-29T12:49:14.612Z,92419.09
2023-03-29T12:51:47.384Z,92429.09
2023-03-29T12:54:22.611Z,92403.84
2023-03-29T12:56:57.696Z,92424.31
2023-03-29T12:59:43.852Z,92419.34
2023-03-29T13:02:27.136Z,92421.22
2023-03-29T13:05:00.438Z,92433.25
2023-03-29T13:07:46.404Z,92428.81
2023-03-29T13:10:39.200Z,92420.19
2023-03-29T13:13:17.327Z,92429.59
2023-03-29T13:15:50.246Z,92432.28
2023-03-29T13:18:33.325Z,92433.59
2023-03-29T13:21:16.592Z,92435.19
2023-03-29T13:23:58.978Z,92421.72
2023-03-29T13:26:54.523Z,92417.03
2023-03-29T13:29:58.956Z,92429.81
2023-03-29T13:32:51.792Z,92415.53
2023-03-29T13:35:36.150Z,92410.97
2023-03-29T13:38:17.943Z,92413.41
2023-03-29T13:41:02.196Z,92410.91
2023-03-29T13:43:37.037Z,92410.66
2023-03-29T13:46:22.354Z,92390.78
2023-03-29T13:49:04.800Z,92399.56
2023-03-29T13:51:39.682Z,92400.56
2023-03-29T13:54:24.412Z,92399.19
2023-03-29T13:57:03.434Z,92398.47
2023-03-29T13:59:44.604Z,92394.97
2023-03-29T14:02:30.802Z,92387.88
2023-03-29T14:05:06.051Z,92394.25
2023-03-29T14:07:44.185Z,92407.38
2023-03-29T14:10:21.109Z,92404.66
2023-03-29T14:12:56.142Z,92408.47
2023-03-29T14:15:42.179Z,92412.63
2023-03-29T14:18:18.839Z,92411.22
2023-03-29T14:20:54.313Z,92413.66
2023-03-29T14:23:29.980Z,92418.25
2023-03-29T14:26:06.242Z,92416.22
2023-03-29T14:28:45.272Z,92435.22
2023-03-29T14:31:18.998Z,92446.69
2023-03-29T14:33:52.939Z,92430.56
2023-03-29T14:36:26.786Z,92431.16
2023-03-29T14:39:04.666Z,92438.28
2023-03-29T14:41:38.043Z,92432.81
2023-03-29T14:44:13.731Z,92439.25
2023-03-29T14:46:46.506Z,92431.56
2023-03-29T14:49:22.251Z,92429.06
2023-03-29T14:51:55.057Z,92442.81
2023-03-29T14:54:31.284Z,92441.72
2023-03-29T14:57:06.551Z,92434.38
2023-03-29T14:59:42.004Z,92436.91
2023-03-29T15:02:25.860Z,92439.47
2023-03-29T15:05:02.519Z,92437.91
2023-03-29T15:07:36.155Z,92438.94
2023-03-29T15:10:17.011Z,92437.44
2023-03-29T15:12:50.478Z,92439.13
2023-03-29T15:15:25.053Z,92445.84
2023-03-29T15:17:58.041Z,92447.28
2023-03-29T15:20:34.567Z,92447.50
2023-03-29T15:23:18.864Z,92462.31
2023-03-29T15:25:55.215Z,92453.84
2023-03-29T15:28:30.734Z,92457.50
2023-03-29T15:31:09.998Z,92452.50
2023-03-29T15:33:42.564Z,92457.06
2023-03-29T15:36:15.767Z,92454.91
2023-03-29T15:38:49.172Z,92460.78
2023-03-29T15:41:22.376Z,92456.44
2023-03-29T15:43:55.226Z,92466.97
2023-03-29T15:46:27.972Z,92465.19
2023-03-29T15:49:00.914Z,92470.97
2023-03-29T15:51:33.856Z,92471.03
2023-03-29T15:54:07.133Z,92474.72
2023-03-29T15:56:48.022Z,92475.28
2023-03-29T15:59:20.980Z,92481.34
2023-03-29T16:01:53.805Z,92465.03
2023-03-29T16:04:26.604Z,92465.56
2023-03-29T16:07:00.992Z,92469.72
2023-03-29T16:09:33.797Z,92476.75
2023-03-29T16:12:06.088Z,92475.41
2023-03-29T16:14:38.984Z,92462.19
2023-03-29T16:17:11.642Z,92468.91
2023-03-29T16:19:43.924Z,92473.03
2023-03-29T16:22:16.975Z,92467.09
2023-03-29T16:24:49.251Z,92475.13
2023-03-29T16:27:21.605Z,92482.41
2023-03-29T16:29:53.923Z,92479.59
2023-03-29T16:32:26.295Z,92481.19
2023-03-29T16:34:58.670Z,92484.03
2023-03-29T16:37:31.678Z,92493.88
2023-03-29T16:40:06.614Z,92501.91
2023-03-29T16:42:39.209Z,92499.31
2023-03-29T16:45:13.414Z,92504.00
2023-03-29T16:47:45.989Z,92505.28
2023-03-29T16:50:19.357Z,92513.59
2023-03-29T16:52:52.557Z,92508.66
2023-03-29T16:55:25.008Z,92497.50
2023-03-29T16:57:57.578Z,92502.41
2023-03-29T17:00:32.492Z,92501.78
2023-03-29T17:03:05.073Z,92502.00
2023-03-29T17:05:40.692Z,92502.28
2023-03-29T17:08:13.824Z,92507.31
2023-03-29T17:10:46.236Z,92512.81
2023-03-29T17:13:19.878Z,92509.03
2023-03-29T17:15:53.688Z,92508.88
2023-03-29T17:18:27.018Z,92505.84
2023-03-29T17:20:59.629Z,92517.75
2023-03-29T17:23:32.691Z,92508.44
2023-03-29T17:26:06.304Z,92521.41
2023-03-29T17:28:38.981Z,92514.97
2023-03-29T17:31:11.442Z,92523.75
2023-03-29T17:33:46.528Z,92518.28
2023-03-29T17:36:23.049Z,92521.91
2023-03-29T17:38:56.899Z,92525.78
2023-03-29T17:41:30.820Z,92523.16
2023-03-29T17:44:03.617Z,92523.72
2023-03-29T17:46:37.151Z,92533.34
2023-03-29T17:49:09.474Z,92530.66
2023-03-29T17:51:41.763Z,92528.69
2023-03-29T17:54:15.636Z,92534.28
2023-03-29T17:56:48.359Z,92536.34
2023-03-29T17:59:20.631Z,92538.59
2023-03-29T18:01:53.039Z,92535.34
2023-03-29T18:04:25.464Z,92537.78
2023-03-29T18:06:58.000Z,92532.94
2023-03-29T18:09:31.124Z,92540.78
2023-03-29T18:12:03.943Z,92538.75
2023-03-29T18:14:36.366Z,92537.22
2023-03-29T18:17:08.776Z,92538.03
2023-03-29T18:19:41.132Z,92544.47
2023-03-29T18:22:13.488Z,92541.28
2023-03-29T18:24:47.453Z,92543.94
2023-03-29T18:27:19.835Z,92545.50
2023-03-29T18:29:54.458Z,92553.28
2023-03-29T18:32:26.848Z,92553.25
2023-03-29T18:34:59.180Z,92557.03
2023-03-29T18:37:31.463Z,92548.47
2023-03-29T18:40:07.552Z,92552.06
2023-03-29T18:42:39.864Z,92547.41
2023-03-29T18:45:12.452Z,92547.41
2023-03-29T18:47:46.136Z,92541.44
2023-03-29T18:50:18.632Z,92543.78
2023-03-29T18:52:50.961Z,92541.91
2023-03-29T18:55:23.972Z,92536.63
2023-03-29T18:57:56.919Z,92540.44
2023-03-29T19:00:29.246Z,92535.06
2023-03-29T19:03:02.159Z,92542.50
2023-03-29T19:05:37.366Z,92539.25
2023-03-29T19:08:09.670Z,92541.63
2023-03-29T19:10:42.602Z,92544.16
2023-03-29T19:13:14.922Z,92545.69
2023-03-29T19:15:47.205Z,92535.16
2023-03-29T19:18:19.633Z,92542.66
2023-03-29T19:20:53.414Z,92535.25
2023-03-29T19:23:27.460Z,92547.47
2023-03-29T19:26:02.736Z,92548.13
2023-03-29T19:28:35.860Z,92544.44
2023-03-29T19:31:08.201Z,92545.06
2023-03-29T19:33:40.592Z,92536.88
2023-03-29T19:36:12.931Z,92539.00
2023-03-29T19:38:45.275Z,92538.28
2023-03-29T19:41:18.244Z,92529.16
2023-03-29T19:43:50.654Z,92525.28
2023-03-29T19:46:22.983Z,92527.91
2023-03-29T19:48:55.530Z,92541.66
2023-03-29T19:51:27.916Z,92540.25
2023-03-29T19:54:00.376Z,92538.09
2023-03-29T19:56:34.117Z,92545.41
2023-03-29T19:59:08.207Z,92543.66
2023-03-29T20:01:41.931Z,92548.91
2023-03-29T20:04:14.245Z,92544.03
2023-03-29T20:06:46.618Z,92544.59
2023-03-29T20:09:18.932Z,92546.59
2023-03-29T20:11:51.864Z,92544.03
2023-03-29T20:14:24.515Z,92550.91
2023-03-29T20:16:56.864Z,92545.81
2023-03-29T20:19:29.306Z,92544.78
2023-03-29T20:22:02.595Z,92534.91
2023-03-29T20:24:35.005Z,92547.72
2023-03-29T20:27:07.969Z,92544.09
2023-03-29T20:29:40.489Z,92551.66
2023-03-29T20:32:12.957Z,92547.97
2023-03-29T20:34:45.418Z,92548.56
2023-03-29T20:37:17.736Z,92551.91
2023-03-29T20:39:50.033Z,92550.91
2023-03-29T20:42:23.855Z,92551.72
2023-03-29T20:44:56.152Z,92553.00
2023-03-29T20:47:28.684Z,92560.03
2023-03-29T20:50:03.448Z,92558.91
2023-03-29T20:52:35.768Z,92559.28
2023-03-29T20:55:08.228Z,92566.06
2023-03-29T20:57:41.547Z,92562.16
2023-03-29T21:00:14.515Z,92565.00
2023-03-29T21:02:47.076Z,92565.34
2023-03-29T21:05:19.457Z,92565.09
2023-03-29T21:07:53.908Z,92565.16
2023-03-29T21:10:27.452Z,92564.91
2023-03-29T21:13:01.640Z,92559.34
2023-03-29T21:15:33.984Z,92560.47
2023-03-29T21:18:06.462Z,92559.50
2023-03-29T21:20:38.815Z,92567.53
2023-03-29T21:23:11.144Z,92557.00
2023-03-29T21:25:43.564Z,92564.50
2023-03-29T21:28:16.571Z,92565.38
2023-03-29T21:30:48.886Z,92569.50
2023-03-29T21:33:21.224Z,92562.78
2023-03-29T21:35:53.545Z,92557.44
2023-03-29T21:38:25.939Z,92562.78
2023-03-29T21:40:59.497Z,92562.00
2023-03-29T21:43:32.425Z,92559.66
2023-03-29T21:46:05.213Z,92557.28
2023-03-29T21:48:37.761Z,92552.88
2023-03-29T21:51:10.061Z,92554.06
2023-03-29T21:53:42.439Z,92553.06
2023-03-29T21:56:15.056Z,92551.53
2023-03-29T21:58:47.986Z,92545.16
2023-03-29T22:01:20.375Z,92550.31
2023-03-29T22:04:01.889Z,92550.44
2023-03-29T22:06:34.310Z,92540.31
2023-03-29T22:09:06.741Z,92544.25
2023-03-29T22:11:39.138Z,92539.66
2023-03-29T22:14:12.507Z,92539.81
2023-03-29T22:16:45.022Z,92543.72
2023-03-29T22:19:17.337Z,92536.13
2023-03-29T22:21:50.651Z,92541.81
2023-03-29T22:24:22.940Z,92539.66
2023-03-29T22:26:55.240Z,92528.53
2023-03-29T22:29:28.213Z,92530.88
2023-03-29T22:32:00.592Z,92540.69
2023-03-29T22:34:33.341Z,92528.41
2023-03-29T22:37:05.674Z,92530.03
2023-03-29T22:39:37.988Z,92529.56
2023-03-29T22:42:10.314Z,92530.63
2023-03-29T22:44:43.332Z,92538.47
2023-03-29T22:47:15.800Z,92535.66
2023-03-29T22:49:48.108Z,92534.09
2023-03-29T22:52:20.409Z,92532.97
2023-03-29T22:54:52.713Z,92538.66
2023-03-29T22:57:25.120Z,92527.00
2023-03-29T22:59:58.140Z,92534.22
2023-03-29T23:02:30.466Z,92531.13
2023-03-29T23:05:02.942Z,92529.28
2023-03-29T23:07:36.312Z,92531.53
2023-03-29T23:10:09.925Z,92532.91
2023-03-29T23:12:42.478Z,92533.75
2023-03-29T23:15:16.270Z,92538.13
2023-03-29T23:17:48.931Z,92537.59
2023-03-29T23:20:21.241Z,92542.34
2023-03-29T23:22:53.521Z,92535.72
2023-03-29T23:25:26.405Z,92539.78
2023-03-29T23:27:58.873Z,92537.81
2023-03-29T23:30:35.180Z,92533.41
2023-03-29T23:33:09.639Z,92533.69
2023-03-29T23:35:43.354Z,92536.41
2023-03-29T23:38:15.684Z,92526.16
2023-03-29T23:40:55.121Z,92533.78
2023-03-29T23:43:31.791Z,92526.34
2023-03-29T23:46:06.601Z,92531.38
2023-03-29T23:48:39.725Z,92523.75
2023-03-29T23:51:12.108Z,92532.75
2023-03-29T23:53:44.795Z,92530.53
2023-03-29T23:56:17.101Z,92529.00
2023-03-29T23:58:49.534Z,92516.25
